createdAt,value
2016-06-15T00:00:45.503Z,1008.36
2016-06-15T00:01:45.507Z,1008.33
2016-06-15T00:02:45.478Z,1008.35
2016-06-15T00:03:45.466Z,1008.36
2016-06-15T00:04:45.469Z,1008.27
2016-06-15T00:05:45.440Z,1008.24
2016-06-15T00:06:45.428Z,1008.25
2016-06-15T00:07:45.415Z,1008.27
2016-06-15T00:08:45.387Z,1008.23
2016-06-15T00:09:45.390Z,1008.22
2016-06-15T00:10:45.378Z,1008.17
2016-06-15T00:11:45.365Z,1008.16
2016-06-15T00:12:45.353Z,1008.21
2016-06-15T00:13:45.324Z,1008.2
2016-06-15T00:14:45.312Z,1008.17
2016-06-15T00:15:45.300Z,1008.15
2016-06-15T00:16:45.287Z,1008.08
2016-06-15T00:17:45.274Z,1008.07
2016-06-15T00:18:45.262Z,1008.06
2016-06-15T00:19:45.265Z,1008.1
2016-06-15T00:20:45.221Z,1008.12
2016-06-15T00:21:45.209Z,1008.14
2016-06-15T00:22:45.196Z,1008.14
2016-06-15T00:23:45.184Z,1008.12
2016-06-15T00:24:45.170Z,1008.13
2016-06-15T00:25:45.159Z,1008.1
2016-06-15T00:26:45.145Z,1008.12
2016-06-15T00:27:45.133Z,1008.15
2016-06-15T00:28:45.104Z,1008.09
2016-06-15T00:29:45.093Z,1008.08
2016-06-15T00:30:45.079Z,1008.06
2016-06-15T00:31:45.067Z,1008.08
2016-06-15T00:32:45.055Z,1008.08
2016-06-15T00:33:45.042Z,1008.14
2016-06-15T00:34:45.029Z,1008.08
2016-06-15T00:35:45.017Z,1008.14
2016-06-15T00:36:45.005Z,1008.11
2016-06-15T00:37:44.976Z,1008.17
2016-06-15T00:38:44.963Z,1008.11
2016-06-15T00:39:44.952Z,1008.13
2016-06-15T00:40:44.939Z,1008.09
2016-06-15T00:41:44.925Z,1008.09
2016-06-15T00:42:44.914Z,1008.08
2016-06-15T00:43:44.901Z,1008.04
2016-06-15T00:44:44.889Z,1008.08
2016-06-15T00:45:44.860Z,1008.06
2016-06-15T00:46:44.848Z,1008.05
2016-06-15T00:47:44.835Z,1008.02
2016-06-15T00:48:44.822Z,1008.01
2016-06-15T00:49:44.810Z,1008.06
2016-06-15T00:50:44.797Z,1008.07
2016-06-15T00:51:44.770Z,1008.02
2016-06-15T00:52:44.772Z,1008.02
2016-06-15T00:53:44.745Z,1008.07
2016-06-15T00:54:44.732Z,1008.05
2016-06-15T00:55:44.719Z,1008.08
2016-06-15T00:56:44.707Z,1008.1
2016-06-15T00:57:44.710Z,1008.03
2016-06-15T00:58:44.697Z,1008.04
2016-06-15T00:59:44.720Z,1007.98
2016-06-15T01:00:44.745Z,1007.99
2016-06-15T01:01:44.768Z,1007.95
2016-06-15T01:02:44.791Z,1007.9
2016-06-15T01:03:44.797Z,1007.92
2016-06-15T01:04:44.797Z,1007.88
2016-06-15T01:05:44.798Z,1007.89
2016-06-15T01:06:44.798Z,1007.88
2016-06-15T01:07:44.798Z,1007.91
2016-06-15T01:08:44.776Z,1007.86
2016-06-15T01:09:44.769Z,1007.92
2016-06-15T01:10:44.761Z,1007.85
2016-06-15T01:11:44.754Z,1007.84
2016-06-15T01:12:44.746Z,1007.89
2016-06-15T01:13:44.767Z,1007.82
2016-06-15T01:14:44.740Z,1007.87
2016-06-15T01:15:44.714Z,1007.84
2016-06-15T01:16:44.687Z,1007.81
2016-06-15T01:17:44.676Z,1007.87
2016-06-15T01:18:44.681Z,1007.78
2016-06-15T01:19:44.653Z,1007.79
2016-06-15T01:20:44.641Z,1007.83
2016-06-15T01:21:44.661Z,1007.75
2016-06-15T01:22:44.618Z,1007.72
2016-06-15T01:23:44.714Z,1007.73
2016-06-15T01:24:44.577Z,1007.72
2016-06-15T01:25:44.564Z,1007.73
2016-06-15T01:26:44.552Z,1007.72
2016-06-15T01:27:44.540Z,1007.74
2016-06-15T01:28:44.526Z,1007.71
2016-06-15T01:29:44.515Z,1007.7
2016-06-15T01:30:44.485Z,1007.7
2016-06-15T01:31:44.474Z,1007.7
2016-06-15T01:32:44.460Z,1007.72
2016-06-15T01:33:44.449Z,1007.71
2016-06-15T01:34:44.435Z,1007.69
2016-06-15T01:35:45.236Z,1007.73
2016-06-15T01:36:44.394Z,1007.68
2016-06-15T01:37:44.398Z,1007.71
2016-06-15T01:38:44.370Z,1007.7
2016-06-15T01:39:44.357Z,1007.71
2016-06-15T01:40:44.345Z,1007.69
2016-06-15T01:41:44.332Z,1007.69
2016-06-15T01:42:44.319Z,1007.64
2016-06-15T01:43:44.291Z,1007.63
2016-06-15T01:44:44.295Z,1007.6
2016-06-15T01:45:44.266Z,1007.59
2016-06-15T01:46:44.253Z,1007.62
2016-06-15T01:47:44.241Z,1007.6
2016-06-15T01:48:44.229Z,1007.57
2016-06-15T01:49:44.216Z,1007.58
2016-06-15T01:50:44.188Z,1007.57
2016-06-15T01:51:44.175Z,1007.53
2016-06-15T01:52:44.178Z,1007.52
2016-06-15T01:53:44.150Z,1007.54
2016-06-15T01:54:44.138Z,1007.52
2016-06-15T01:55:44.125Z,1007.55
2016-06-15T01:56:44.112Z,1007.5
2016-06-15T01:57:44.100Z,1007.51
2016-06-15T01:58:44.071Z,1007.5
2016-06-15T01:59:44.060Z,1007.48
2016-06-15T02:00:44.047Z,1007.46
2016-06-15T02:01:44.035Z,1007.49
2016-06-15T02:02:44.022Z,1007.47
2016-06-15T02:03:44.009Z,1007.42
2016-06-15T02:04:43.981Z,1007.42
2016-06-15T02:05:43.968Z,1007.45
2016-06-15T02:06:43.971Z,1007.41
2016-06-15T02:07:43.943Z,1007.42
2016-06-15T02:08:43.931Z,1007.37
2016-06-15T02:09:43.918Z,1007.36
2016-06-15T02:10:43.905Z,1007.32
2016-06-15T02:11:43.878Z,1007.28
2016-06-15T02:12:43.881Z,1007.26
2016-06-15T02:13:43.853Z,1007.28
2016-06-15T02:14:43.840Z,1007.28
2016-06-15T02:15:43.828Z,1007.32
2016-06-15T02:16:43.815Z,1007.35
2016-06-15T02:17:43.802Z,1007.29
2016-06-15T02:18:43.790Z,1007.27
2016-06-15T02:19:43.761Z,1007.24
2016-06-15T02:20:43.749Z,1007.26
2016-06-15T02:21:43.736Z,1007.24
2016-06-15T02:22:43.725Z,1007.23
2016-06-15T02:23:43.711Z,1007.23
2016-06-15T02:24:43.699Z,1007.17
2016-06-15T02:25:43.686Z,1007.15
2016-06-15T02:26:43.673Z,1007.15
2016-06-15T02:27:43.660Z,1007.15
2016-06-15T02:28:43.633Z,1007.11
2016-06-15T02:29:43.620Z,1007.13
2016-06-15T02:30:43.608Z,1007.06
2016-06-15T02:31:43.594Z,1007.09
2016-06-15T02:32:43.583Z,1007.02
2016-06-15T02:33:43.554Z,1007.09
2016-06-15T02:34:43.542Z,1007.07
2016-06-15T02:35:43.529Z,1007.05
2016-06-15T02:36:43.517Z,1007.07
2016-06-15T02:37:43.504Z,1007.07
2016-06-15T02:38:43.491Z,1007.08
2016-06-15T02:39:43.479Z,1007.06
2016-06-15T02:40:43.450Z,1007.07
2016-06-15T02:41:43.439Z,1007.03
2016-06-15T02:42:43.425Z,1007.02
2016-06-15T02:43:43.414Z,1007.06
2016-06-15T02:44:43.401Z,1007.02
2016-06-15T02:45:43.388Z,1007.02
2016-06-15T02:46:43.360Z,1007.03
2016-06-15T02:47:43.347Z,1007.03
2016-06-15T02:48:43.335Z,1007
2016-06-15T02:49:43.322Z,1007.05
2016-06-15T02:50:43.311Z,1007.04
2016-06-15T02:51:43.297Z,1007.02
2016-06-15T02:52:43.285Z,1006.97
2016-06-15T02:53:43.256Z,1006.97
2016-06-15T02:54:43.244Z,1006.95
2016-06-15T02:55:43.232Z,1006.96
2016-06-15T02:56:43.219Z,1006.94
2016-06-15T02:57:43.206Z,1006.93
2016-06-15T02:58:43.194Z,1006.86
2016-06-15T02:59:43.165Z,1006.87
2016-06-15T03:00:43.153Z,1006.85
2016-06-15T03:01:43.140Z,1006.82
2016-06-15T03:02:43.129Z,1006.8
2016-06-15T03:03:43.115Z,1006.8
2016-06-15T03:04:43.103Z,1006.8
2016-06-15T03:05:43.074Z,1006.78
2016-06-15T03:06:43.063Z,1006.75
2016-06-15T03:07:43.050Z,1006.75
2016-06-15T03:08:43.037Z,1006.75
2016-06-15T03:09:43.025Z,1006.71
2016-06-15T03:10:43.011Z,1006.72
2016-06-15T03:11:43.000Z,1006.72
2016-06-15T03:12:42.987Z,1006.72
2016-06-15T03:13:42.959Z,1006.77
2016-06-15T03:14:42.946Z,1006.74
2016-06-15T03:15:42.933Z,1006.78
2016-06-15T03:16:42.921Z,1006.7
2016-06-15T03:17:42.894Z,1006.79
2016-06-15T03:18:42.896Z,1006.74
2016-06-15T03:19:42.883Z,1006.79
2016-06-15T03:20:42.855Z,1006.79
2016-06-15T03:21:42.842Z,1006.76
2016-06-15T03:22:42.829Z,1006.77
2016-06-15T03:23:42.818Z,1006.73
2016-06-15T03:24:42.789Z,1006.69
2016-06-15T03:25:42.777Z,1006.67
2016-06-15T03:26:42.780Z,1006.73
2016-06-15T03:27:42.767Z,1006.68
2016-06-15T03:28:42.739Z,1006.62
2016-06-15T03:29:42.726Z,1006.64
2016-06-15T03:30:42.714Z,1006.61
2016-06-15T03:31:42.701Z,1006.61
2016-06-15T03:32:42.673Z,1006.57
2016-06-15T03:33:42.660Z,1006.58
2016-06-15T03:34:42.649Z,1006.58
2016-06-15T03:35:42.635Z,1006.58
2016-06-15T03:36:42.623Z,1006.57
2016-06-15T03:37:42.611Z,1006.52
2016-06-15T03:38:42.583Z,1006.54
2016-06-15T03:39:42.586Z,1006.56
2016-06-15T03:40:42.557Z,1006.54
2016-06-15T03:41:42.545Z,1006.53
2016-06-15T03:42:42.532Z,1006.49
2016-06-15T03:43:42.519Z,1006.51
2016-06-15T03:44:42.507Z,1006.48
2016-06-15T03:45:42.495Z,1006.51
2016-06-15T03:46:42.466Z,1006.5
2016-06-15T03:47:42.454Z,1006.49
2016-06-15T03:48:42.441Z,1006.51
2016-06-15T03:49:42.429Z,1006.48
2016-06-15T03:50:42.962Z,1006.52
2016-06-15T03:51:42.404Z,1006.5
2016-06-15T03:52:42.390Z,1006.5
2016-06-15T03:53:42.363Z,1006.5
2016-06-15T03:54:42.349Z,1006.49
2016-06-15T03:55:42.338Z,1006.49
2016-06-15T03:56:42.325Z,1006.48
2016-06-15T03:57:42.312Z,1006.48
2016-06-15T03:58:42.316Z,1006.49
2016-06-15T03:59:42.287Z,1006.49
2016-06-15T04:00:42.275Z,1006.47
2016-06-15T04:01:42.247Z,1006.42
2016-06-15T04:02:42.234Z,1006.4
2016-06-15T04:03:42.222Z,1006.37
2016-06-15T04:04:42.208Z,1006.39
2016-06-15T04:05:42.197Z,1006.35
2016-06-15T04:06:42.169Z,1006.35
2016-06-15T04:07:42.156Z,1006.34
2016-06-15T04:08:42.143Z,1006.34
2016-06-15T04:09:42.131Z,1006.38
2016-06-15T04:10:42.118Z,1006.4
2016-06-15T04:11:42.105Z,1006.36
2016-06-15T04:12:42.077Z,1006.3
2016-06-15T04:13:42.080Z,1006.28
2016-06-15T04:14:42.052Z,1006.27
2016-06-15T04:15:42.040Z,1006.2
2016-06-15T04:16:42.027Z,1006.17
2016-06-15T04:17:42.015Z,1006.1
2016-06-15T04:18:42.002Z,1006.07
2016-06-15T04:19:41.974Z,1006.1
2016-06-15T04:20:42.024Z,1006.08
2016-06-15T04:21:41.949Z,1006.11
2016-06-15T04:22:41.936Z,1006.11
2016-06-15T04:23:41.924Z,1006.11
2016-06-15T04:24:41.896Z,1006.09
2016-06-15T04:25:41.898Z,1006.09
2016-06-15T04:26:41.887Z,1006.03
2016-06-15T04:27:41.858Z,1006.04
2016-06-15T04:28:41.846Z,1006.14
2016-06-15T04:29:41.833Z,1006.16
2016-06-15T04:30:41.805Z,1006.1
2016-06-15T04:31:41.808Z,1006.1
2016-06-15T04:32:41.795Z,1006.1
2016-06-15T04:33:41.767Z,1006.17
2016-06-15T04:34:41.755Z,1006.16
2016-06-15T04:35:41.742Z,1006.1
2016-06-15T04:36:41.729Z,1006.09
2016-06-15T04:37:41.717Z,1006.12
2016-06-15T04:38:41.688Z,1006.13
2016-06-15T04:39:41.676Z,1006.1
2016-06-15T04:40:41.664Z,1006.06
2016-06-15T04:41:41.651Z,1006.11
2016-06-15T04:42:41.638Z,1006.15
2016-06-15T04:43:41.625Z,1006.14
2016-06-15T04:44:41.613Z,1006.17
2016-06-15T04:45:41.584Z,1006.17
2016-06-15T04:46:41.573Z,1006.18
2016-06-15T04:47:41.559Z,1006.2
2016-06-15T04:48:41.548Z,1006.19
2016-06-15T04:49:41.535Z,1006.21
2016-06-15T04:50:41.663Z,1006.22
2016-06-15T04:51:41.494Z,1006.25
2016-06-15T04:52:41.481Z,1006.21
2016-06-15T04:53:41.469Z,1006.22
2016-06-15T04:54:41.456Z,1006.23
2016-06-15T04:55:41.444Z,1006.24
2016-06-15T04:56:41.431Z,1006.25
2016-06-15T04:57:41.419Z,1006.28
2016-06-15T04:58:41.390Z,1006.27
2016-06-15T04:59:41.378Z,1006.25
2016-06-15T05:00:41.365Z,1006.24
2016-06-15T05:01:41.353Z,1006.26
2016-06-15T05:02:41.341Z,1006.26
2016-06-15T05:03:41.328Z,1006.28
2016-06-15T05:04:41.315Z,1006.28
2016-06-15T05:05:41.412Z,1006.27
2016-06-15T05:06:41.290Z,1006.3
2016-06-15T05:07:41.262Z,1006.21
2016-06-15T05:08:41.250Z,1006.29
2016-06-15T05:09:41.237Z,1006.29
2016-06-15T05:10:41.225Z,1006.3
2016-06-15T05:11:41.211Z,1006.26
2016-06-15T05:12:41.200Z,1006.26
2016-06-15T05:13:41.171Z,1006.25
2016-06-15T05:14:41.159Z,1006.25
2016-06-15T05:15:41.146Z,1006.27
2016-06-15T05:16:41.134Z,1006.27
2016-06-15T05:17:41.121Z,1006.26
2016-06-15T05:18:41.108Z,1006.28
2016-06-15T05:19:41.097Z,1006.27
2016-06-15T05:20:41.067Z,1006.26
2016-06-15T05:21:41.056Z,1006.2
2016-06-15T05:22:41.042Z,1006.2
2016-06-15T05:23:41.031Z,1006.2
2016-06-15T05:24:41.017Z,1006.2
2016-06-15T05:25:40.990Z,1006.2
2016-06-15T05:26:40.976Z,1006.17
2016-06-15T05:27:40.964Z,1006.12
2016-06-15T05:28:40.952Z,1006.11
2016-06-15T05:29:40.939Z,1006.1
2016-06-15T05:30:40.927Z,1006.1
2016-06-15T05:31:40.914Z,1006.04
2016-06-15T05:32:40.886Z,1006
2016-06-15T05:33:40.873Z,1006
2016-06-15T05:34:40.860Z,1006.03
2016-06-15T05:35:40.849Z,1006.05
2016-06-15T05:36:41.023Z,1006.05
2016-06-15T05:37:40.823Z,1006.08
2016-06-15T05:38:40.794Z,1006.09
2016-06-15T05:39:40.797Z,1006.09
2016-06-15T05:40:40.769Z,1006.09
2016-06-15T05:41:40.757Z,1006.09
2016-06-15T05:42:40.745Z,1006.11
2016-06-15T05:43:40.731Z,1006.13
2016-06-15T05:44:40.720Z,1006.12
2016-06-15T05:45:40.707Z,1006.11
2016-06-15T05:46:40.680Z,1006.1
2016-06-15T05:47:40.666Z,1006.06
2016-06-15T05:48:40.654Z,1006.13
2016-06-15T05:49:40.641Z,1006.1
2016-06-15T05:50:40.628Z,1006.1
2016-06-15T05:51:41.022Z,1006.16
2016-06-15T05:52:40.588Z,1006.08
2016-06-15T05:53:40.590Z,1006.08
2016-06-15T05:54:40.563Z,1006.03
2016-06-15T05:55:40.549Z,1006.11
2016-06-15T05:56:40.538Z,1006.1
2016-06-15T05:57:40.525Z,1006.1
2016-06-15T05:58:40.513Z,1006.1
2016-06-15T05:59:40.484Z,1006.1
2016-06-15T06:00:40.487Z,1006.11
2016-06-15T06:01:40.459Z,1006.13
2016-06-15T06:02:40.447Z,1006.15
2016-06-15T06:03:40.434Z,1006.13
2016-06-15T06:04:40.422Z,1006.18
2016-06-15T06:05:40.409Z,1006.12
2016-06-15T06:06:40.380Z,1006.15
2016-06-15T06:07:40.384Z,1006.16
2016-06-15T06:08:40.356Z,1006.24
2016-06-15T06:09:40.342Z,1006.29
2016-06-15T06:10:40.331Z,1006.33
2016-06-15T06:11:40.318Z,1006.27
2016-06-15T06:12:40.306Z,1006.25
2016-06-15T06:13:40.278Z,1006.25
2016-06-15T06:14:40.265Z,1006.22
2016-06-15T06:15:40.253Z,1006.15
2016-06-15T06:16:40.255Z,1006.14
2016-06-15T06:17:40.228Z,1006.17
2016-06-15T06:18:40.214Z,1006.16
2016-06-15T06:19:40.203Z,1006.16
2016-06-15T06:20:40.174Z,1006.17
2016-06-15T06:21:40.365Z,1006.19
2016-06-15T06:22:40.149Z,1006.16
2016-06-15T06:23:40.136Z,1006.16
2016-06-15T06:24:40.124Z,1006.16
2016-06-15T06:25:40.111Z,1006.17
2016-06-15T06:26:40.083Z,1006.15
2016-06-15T06:27:40.070Z,1006.18
2016-06-15T06:28:40.058Z,1006.19
2016-06-15T06:29:40.046Z,1006.15
2016-06-15T06:30:40.032Z,1006.18
2016-06-15T06:31:40.021Z,1006.18
2016-06-15T06:32:39.992Z,1006.17
2016-06-15T06:33:39.996Z,1006.19
2016-06-15T06:34:39.967Z,1006.21
2016-06-15T06:35:39.955Z,1006.22
2016-06-15T06:36:39.942Z,1006.21
2016-06-15T06:37:39.928Z,1006.29
2016-06-15T06:38:39.917Z,1006.24
2016-06-15T06:39:39.904Z,1006.28
2016-06-15T06:40:39.938Z,1006.27
2016-06-15T06:41:39.863Z,1006.26
2016-06-15T06:42:39.898Z,1006.25
2016-06-15T06:43:39.838Z,1006.27
2016-06-15T06:44:39.888Z,1006.26
2016-06-15T06:45:39.798Z,1006.26
2016-06-15T06:46:39.785Z,1006.28
2016-06-15T06:47:39.773Z,1006.32
2016-06-15T06:48:39.759Z,1006.29
2016-06-15T06:49:39.748Z,1006.31
2016-06-15T06:50:39.735Z,1006.29
2016-06-15T06:51:39.988Z,1006.33
2016-06-15T06:52:39.694Z,1006.34
2016-06-15T06:53:39.682Z,1006.35
2016-06-15T06:54:39.669Z,1006.33
2016-06-15T06:55:39.657Z,1006.35
2016-06-15T06:56:39.644Z,1006.37
2016-06-15T06:57:39.632Z,1006.38
2016-06-15T06:58:39.618Z,1006.4
2016-06-15T06:59:39.591Z,1006.34
2016-06-15T07:00:39.579Z,1006.33
2016-06-15T07:01:39.566Z,1006.33
2016-06-15T07:02:39.569Z,1006.31
2016-06-15T07:03:39.541Z,1006.29
2016-06-15T07:04:39.528Z,1006.41
2016-06-15T07:05:39.515Z,1006.23
2016-06-15T07:06:40.065Z,1006.25
2016-06-15T07:07:39.475Z,1006.23
2016-06-15T07:08:39.462Z,1006.26
2016-06-15T07:09:39.449Z,1006.26
2016-06-15T07:10:39.437Z,1006.22
2016-06-15T07:11:39.425Z,1006.29
2016-06-15T07:12:39.396Z,1006.29
2016-06-15T07:13:39.384Z,1006.32
2016-06-15T07:14:39.371Z,1006.33
2016-06-15T07:15:39.359Z,1006.27
2016-06-15T07:16:39.346Z,1006.33
2016-06-15T07:17:39.334Z,1006.38
2016-06-15T07:18:39.321Z,1006.36
2016-06-15T07:19:39.293Z,1006.34
2016-06-15T07:20:39.280Z,1006.34
2016-06-15T07:21:39.347Z,1006.35
2016-06-15T07:22:39.255Z,1006.39
2016-06-15T07:23:39.242Z,1006.39
2016-06-15T07:24:39.230Z,1006.48
2016-06-15T07:25:39.218Z,1006.44
2016-06-15T07:26:39.189Z,1006.43
2016-06-15T07:27:39.177Z,1006.39
2016-06-15T07:28:39.165Z,1006.36
2016-06-15T07:29:39.152Z,1006.31
2016-06-15T07:30:39.139Z,1006.39
2016-06-15T07:31:39.127Z,1006.33
2016-06-15T07:32:39.114Z,1006.36
2016-06-15T07:33:39.101Z,1006.28
2016-06-15T07:34:39.073Z,1006.33
2016-06-15T07:35:39.061Z,1006.32
2016-06-15T07:36:39.048Z,1006.28
2016-06-15T07:37:39.035Z,1006.31
2016-06-15T07:38:39.023Z,1006.35
2016-06-15T07:39:39.010Z,1006.42
2016-06-15T07:40:38.983Z,1006.36
2016-06-15T07:41:38.970Z,1006.36
2016-06-15T07:42:38.957Z,1006.38
2016-06-15T07:43:38.945Z,1006.42
2016-06-15T07:44:38.932Z,1006.39
2016-06-15T07:45:38.920Z,1006.41
2016-06-15T07:46:38.907Z,1006.44
2016-06-15T07:47:38.894Z,1006.4
2016-06-15T07:48:38.882Z,1006.37
2016-06-15T07:49:38.854Z,1006.37
2016-06-15T07:50:38.841Z,1006.39
2016-06-15T07:51:38.828Z,1006.4
2016-06-15T07:52:38.817Z,1006.41
2016-06-15T07:53:38.803Z,1006.42
2016-06-15T07:54:38.775Z,1006.43
2016-06-15T07:55:38.763Z,1006.45
2016-06-15T07:56:38.766Z,1006.43
2016-06-15T07:57:38.754Z,1006.49
2016-06-15T07:58:38.724Z,1006.48
2016-06-15T07:59:38.713Z,1006.48
2016-06-15T08:00:38.700Z,1006.54
2016-06-15T08:01:38.687Z,1006.5
2016-06-15T08:02:38.659Z,1006.5
2016-06-15T08:03:38.647Z,1006.49
2016-06-15T08:04:38.650Z,1006.47
2016-06-15T08:05:38.621Z,1006.51
2016-06-15T08:06:38.610Z,1006.53
2016-06-15T08:07:38.596Z,1006.49
2016-06-15T08:08:38.584Z,1006.5
2016-06-15T08:09:38.556Z,1006.49
2016-06-15T08:10:38.543Z,1006.56
2016-06-15T08:11:38.547Z,1006.57
2016-06-15T08:12:38.533Z,1006.59
2016-06-15T08:13:38.506Z,1006.62
2016-06-15T08:14:38.493Z,1006.59
2016-06-15T08:15:38.480Z,1006.53
2016-06-15T08:16:38.469Z,1006.6
2016-06-15T08:17:38.455Z,1006.58
2016-06-15T08:18:38.443Z,1006.53
2016-06-15T08:19:38.430Z,1006.49
2016-06-15T08:20:44.480Z,1006.39
2016-06-15T08:21:40.406Z,1006.44
2016-06-15T08:22:38.376Z,1006.54
2016-06-15T08:23:39.771Z,1006.53
2016-06-15T08:24:38.352Z,1006.53
2016-06-15T08:25:38.340Z,1006.57
2016-06-15T08:26:38.327Z,1006.5
2016-06-15T08:27:38.299Z,1006.49
2016-06-15T08:28:38.286Z,1006.5
2016-06-15T08:29:38.273Z,1006.5
2016-06-15T08:30:38.261Z,1006.55
2016-06-15T08:31:38.248Z,1006.54
2016-06-15T08:32:38.237Z,1006.54
2016-06-15T08:33:38.223Z,1006.47
2016-06-15T08:34:38.211Z,1006.49
2016-06-15T08:35:38.183Z,1006.46
2016-06-15T08:36:38.170Z,1006.45
2016-06-15T08:37:38.173Z,1006.4
2016-06-15T08:38:38.144Z,1006.45
2016-06-15T08:39:38.133Z,1006.43
2016-06-15T08:40:38.120Z,1006.39
2016-06-15T08:41:38.107Z,1006.39
2016-06-15T08:42:38.095Z,1006.41
2016-06-15T08:43:38.082Z,1006.41
2016-06-15T08:44:38.069Z,1006.46
2016-06-15T08:45:38.042Z,1006.46
2016-06-15T08:46:38.044Z,1006.55
2016-06-15T08:47:38.017Z,1006.43
2016-06-15T08:48:38.003Z,1006.54
2016-06-15T08:49:37.991Z,1006.48
2016-06-15T08:50:37.979Z,1006.54
2016-06-15T08:51:37.981Z,1006.55
2016-06-15T08:52:37.969Z,1006.62
2016-06-15T08:53:37.940Z,1006.52
2016-06-15T08:54:37.913Z,1006.54
2016-06-15T08:55:37.916Z,1006.48
2016-06-15T08:56:37.888Z,1006.5
2016-06-15T08:57:37.875Z,1006.56
2016-06-15T08:58:37.862Z,1006.51
2016-06-15T08:59:37.850Z,1006.53
2016-06-15T09:00:37.853Z,1006.54
2016-06-15T09:01:37.826Z,1006.51
2016-06-15T09:02:37.813Z,1006.52
2016-06-15T09:03:37.800Z,1006.56
2016-06-15T09:04:37.772Z,1006.57
2016-06-15T09:05:37.759Z,1006.55
2016-06-15T09:06:38.466Z,1006.58
2016-06-15T09:07:37.734Z,1006.57
2016-06-15T09:08:37.723Z,1006.69
2016-06-15T09:09:37.709Z,1006.61
2016-06-15T09:10:37.696Z,1006.65
2016-06-15T09:11:37.685Z,1006.71
2016-06-15T09:12:37.655Z,1006.73
2016-06-15T09:13:37.669Z,1006.68
2016-06-15T09:14:37.639Z,1006.73
2016-06-15T09:15:45.362Z,1006.72
2016-06-15T09:16:37.596Z,1006.79
2016-06-15T09:17:37.583Z,1006.76
2016-06-15T09:18:37.572Z,1006.71
2016-06-15T09:19:37.558Z,1006.77
2016-06-15T09:20:37.546Z,1006.73
2016-06-15T09:21:37.534Z,1006.77
2016-06-15T09:22:37.520Z,1006.74
2016-06-15T09:23:37.493Z,1006.72
2016-06-15T09:24:37.479Z,1006.73
2016-06-15T09:25:37.530Z,1006.78
2016-06-15T09:26:37.454Z,1006.76
2016-06-15T09:27:37.443Z,1006.84
2016-06-15T09:28:37.430Z,1006.79
2016-06-15T09:29:37.427Z,1006.76
2016-06-15T09:30:37.399Z,1006.74
2016-06-15T09:31:37.386Z,1006.73
2016-06-15T09:32:37.375Z,1006.72
2016-06-15T09:33:37.362Z,1006.69
2016-06-15T09:34:37.348Z,1006.71
2016-06-15T09:35:37.337Z,1006.7
2016-06-15T09:36:37.324Z,1006.8
2016-06-15T09:37:37.357Z,1006.79
2016-06-15T09:38:37.314Z,1006.73
2016-06-15T09:39:37.270Z,1006.75
2016-06-15T09:40:37.258Z,1006.85
2016-06-15T09:41:37.245Z,1006.92
2016-06-15T09:42:37.233Z,1006.95
2016-06-15T09:43:37.220Z,1006.9
2016-06-15T09:44:37.208Z,1006.97
2016-06-15T09:45:37.196Z,1006.93
2016-06-15T09:46:37.182Z,1007
2016-06-15T09:47:37.170Z,1006.96
2016-06-15T09:48:37.157Z,1006.93
2016-06-15T09:49:37.145Z,1006.91
2016-06-15T09:50:37.132Z,1006.92
2016-06-15T09:51:37.105Z,1006.92
2016-06-15T09:52:37.108Z,1006.94
2016-06-15T09:53:37.236Z,1006.86
2016-06-15T09:54:37.316Z,1006.91
2016-06-15T09:55:37.054Z,1006.8
2016-06-15T09:56:37.041Z,1006.85
2016-06-15T09:57:37.029Z,1006.88
2016-06-15T09:58:37.016Z,1006.91
2016-06-15T09:59:37.005Z,1006.87
2016-06-15T10:00:36.991Z,1006.94
2016-06-15T10:01:36.978Z,1007.06
2016-06-15T10:02:36.950Z,1007.04
2016-06-15T10:03:36.953Z,1007.04
2016-06-15T10:04:36.959Z,1007.02
2016-06-15T10:05:36.971Z,1007.04
2016-06-15T10:06:36.999Z,1007.03
2016-06-15T10:07:37.043Z,1007.12
2016-06-15T10:08:37.053Z,1007.02
2016-06-15T10:09:37.053Z,1007.08
2016-06-15T10:10:37.071Z,1007.05
2016-06-15T10:11:37.087Z,1007.19
2016-06-15T10:12:37.058Z,1007.17
2016-06-15T10:13:37.076Z,1007.11
2016-06-15T10:14:37.058Z,1007.04
2016-06-15T10:15:37.050Z,1007.11
2016-06-15T10:16:37.043Z,1007.17
2016-06-15T10:17:47.895Z,1007.09
2016-06-15T10:18:37.028Z,1007.09
2016-06-15T10:19:37.020Z,1007.03
2016-06-15T10:20:37.009Z,1006.99
2016-06-15T10:21:36.999Z,1007.06
2016-06-15T10:22:37.175Z,1007.04
2016-06-15T10:23:36.977Z,1007.01
2016-06-15T10:24:36.966Z,1007.01
2016-06-15T10:25:36.954Z,1006.94
2016-06-15T10:26:36.942Z,1006.97
2016-06-15T10:27:36.913Z,1006.93
2016-06-15T10:28:36.902Z,1006.91
2016-06-15T10:29:36.890Z,1006.91
2016-06-15T10:30:36.893Z,1006.86
2016-06-15T10:31:36.865Z,1006.87
2016-06-15T10:32:37.041Z,1006.88
2016-06-15T10:33:36.856Z,1006.87
2016-06-15T10:34:36.829Z,1006.84
2016-06-15T10:35:36.926Z,1006.82
2016-06-15T10:36:43.444Z,1006.82
2016-06-15T10:37:39.651Z,1006.89
2016-06-15T10:38:37.513Z,1006.9
2016-06-15T10:39:38.563Z,1006.9
2016-06-15T10:40:37.317Z,1006.86
2016-06-15T10:41:36.741Z,1006.75
2016-06-15T10:42:41.635Z,1006.84
2016-06-15T10:43:36.716Z,1006.92
2016-06-15T10:44:36.704Z,1006.96
2016-06-15T10:45:36.863Z,1006.9
2016-06-15T10:46:38.023Z,1006.81
2016-06-15T10:47:42.119Z,1006.83
2016-06-15T10:49:07.341Z,1006.79
2016-06-15T10:50:06.282Z,1006.87
2016-06-15T10:51:18.647Z,1006.84
2016-06-15T10:52:12.807Z,1006.84
2016-06-15T10:54:44.250Z,1006.96
2016-06-15T10:55:57.644Z,1006.89
2016-06-15T10:56:57.647Z,1006.78
2016-06-15T10:57:57.634Z,1006.87
2016-06-15T10:58:57.606Z,1006.8
2016-06-15T10:59:57.610Z,1006.87
2016-06-15T11:00:57.582Z,1006.87
2016-06-15T11:01:57.569Z,1006.92
2016-06-15T11:02:57.635Z,1007
2016-06-15T11:03:57.559Z,1006.98
2016-06-15T11:04:57.547Z,1006.96
2016-06-15T11:05:57.519Z,1006.95
2016-06-15T11:06:57.507Z,1006.95
2016-06-15T11:07:57.806Z,1006.97
2016-06-15T11:08:57.481Z,1006.85
2016-06-15T11:09:57.485Z,1006.93
2016-06-15T11:10:57.471Z,1006.89
2016-06-15T11:11:57.444Z,1007.05
2016-06-15T11:12:57.509Z,1006.97
2016-06-15T11:13:57.419Z,1006.93
2016-06-15T11:14:57.405Z,1006.83
2016-06-15T11:15:57.393Z,1007.01
2016-06-15T11:16:57.459Z,1007
2016-06-15T11:17:57.368Z,1006.85
2016-06-15T11:18:57.356Z,1006.88
2016-06-15T11:19:57.343Z,1006.78
2016-06-15T11:20:57.331Z,1006.84
2016-06-15T11:21:57.319Z,1006.7
2016-06-15T11:22:57.352Z,1006.73
2016-06-15T11:23:57.308Z,1006.68
2016-06-15T11:24:57.281Z,1006.69
2016-06-15T11:25:57.283Z,1006.84
2016-06-15T11:26:57.552Z,1006.69
2016-06-15T11:27:57.274Z,1006.71
2016-06-15T11:28:57.276Z,1006.73
2016-06-15T11:29:57.233Z,1006.72
2016-06-15T11:30:57.221Z,1006.67
2016-06-15T11:31:57.192Z,1006.78
2016-06-15T11:32:57.180Z,1006.95
2016-06-15T11:33:57.167Z,1007.04
2016-06-15T11:34:57.170Z,1007.01
2016-06-15T11:35:57.252Z,1006.98
2016-06-15T11:36:57.130Z,1006.8
2016-06-15T11:37:57.117Z,1007.09
2016-06-15T11:38:57.120Z,1006.94
2016-06-15T11:39:57.107Z,1006.93
2016-06-15T11:40:57.094Z,1006.95
2016-06-15T11:41:57.083Z,1006.97
2016-06-15T11:42:57.070Z,1007.09
2016-06-15T11:43:57.073Z,1006.93
2016-06-15T11:44:57.060Z,1006.98
2016-06-15T11:45:57.048Z,1006.66
2016-06-15T11:46:57.052Z,1006.74
2016-06-15T11:47:57.038Z,1006.82
2016-06-15T11:48:57.026Z,1006.83
2016-06-15T11:49:57.030Z,1006.57
2016-06-15T11:50:57.016Z,1006.88
2016-06-15T11:51:57.020Z,1006.99
2016-06-15T11:52:57.023Z,1006.51
2016-06-15T11:53:57.010Z,1006.88
2016-06-15T11:54:57.013Z,1006.95
2016-06-15T11:55:56.984Z,1006.71
2016-06-15T11:56:56.988Z,1006.73
2016-06-15T11:57:56.975Z,1006.57
2016-06-15T11:58:56.978Z,1006.27
2016-06-15T11:59:57.061Z,1006.58
2016-06-15T12:00:56.969Z,1006.59
2016-06-15T12:01:56.957Z,1006.53
2016-06-15T12:02:56.945Z,1006.71
2016-06-15T12:03:56.948Z,1006.93
2016-06-15T12:04:56.935Z,1006.78
2016-06-15T12:05:56.953Z,1006.83
2016-06-15T12:06:56.925Z,1006.93
2016-06-15T12:07:56.912Z,1006.96
2016-06-15T12:08:56.916Z,1006.47
2016-06-15T12:09:56.903Z,1006.78
2016-06-15T12:10:56.906Z,1006.88